sensor_id;sensor_type;location;lat;lon;timestamp;P1;durP1;ratioP1;P2;durP2;ratioP2
7501;SDS011;3792;47.740;7.606;2023-02-14T00:01:06;29.43;;;21.90;;
7501;SDS011;3792;47.740;7.606;2023-02-14T00:03:36;29.53;;;20.93;;
7501;SDS011;3792;47.740;7.606;2023-02-14T00:06:04;36.53;;;23.13;;
7501;SDS011;3792;47.740;7.606;2023-02-14T00:08:32;34.90;;;21.70;;
7501;SDS011;3792;47.740;7.606;2023-02-14T00:10:59;31.53;;;21.23;;
7501;SDS011;3792;47.740;7.606;2023-02-14T00:13:26;29.40;;;20.23;;
7501;SDS011;3792;47.740;7.606;2023-02-14T00:15:53;32.07;;;20.20;;
7501;SDS011;3792;47.740;7.606;2023-02-14T00:18:19;29.97;;;20.40;;
7501;SDS011;3792;47.740;7.606;2023-02-14T00:20:48;28.13;;;20.20;;
7501;SDS011;3792;47.740;7.606;2023-02-14T00:23:15;27.50;;;18.57;;
7501;SDS011;3792;47.740;7.606;2023-02-14T00:25:42;27.87;;;19.50;;
7501;SDS011;3792;47.740;7.606;2023-02-14T00:28:09;28.40;;;19.20;;
7501;SDS011;3792;47.740;7.606;2023-02-14T00:30:36;30.87;;;19.10;;
7501;SDS011;3792;47.740;7.606;2023-02-14T00:33:03;26.93;;;19.17;;
7501;SDS011;3792;47.740;7.606;2023-02-14T00:35:30;30.37;;;20.23;;
7501;SDS011;3792;47.740;7.606;2023-02-14T00:37:58;29.50;;;19.27;;
7501;SDS011;3792;47.740;7.606;2023-02-14T00:40:25;26.63;;;18.53;;
7501;SDS011;3792;47.740;7.606;2023-02-14T00:42:53;28.73;;;19.13;;
7501;SDS011;3792;47.740;7.606;2023-02-14T00:45:20;28.03;;;19.03;;
7501;SDS011;3792;47.740;7.606;2023-02-14T00:47:47;29.00;;;18.00;;
7501;SDS011;3792;47.740;7.606;2023-02-14T00:50:14;26.20;;;18.13;;
7501;SDS011;3792;47.740;7.606;2023-02-14T00:52:41;26.00;;;16.70;;
7501;SDS011;3792;47.740;7.606;2023-02-14T00:55:09;25.87;;;16.30;;
7501;SDS011;3792;47.740;7.606;2023-02-14T00:57:36;26.60;;;15.87;;
7501;SDS011;3792;47.740;7.606;2023-02-14T01:00:04;24.97;;;15.93;;
7501;SDS011;3792;47.740;7.606;2023-02-14T01:02:31;26.23;;;16.33;;
7501;SDS011;3792;47.740;7.606;2023-02-14T01:04:58;27.83;;;17.47;;
7501;SDS011;3792;47.740;7.606;2023-02-14T01:07:25;27.53;;;17.40;;
7501;SDS011;3792;47.740;7.606;2023-02-14T01:09:52;28.53;;;17.43;;
7501;SDS011;3792;47.740;7.606;2023-02-14T01:12:21;29.83;;;18.93;;
7501;SDS011;3792;47.740;7.606;2023-02-14T01:14:48;27.33;;;17.63;;
7501;SDS011;3792;47.740;7.606;2023-02-14T01:17:15;28.37;;;19.43;;
7501;SDS011;3792;47.740;7.606;2023-02-14T01:19:42;30.13;;;19.03;;
7501;SDS011;3792;47.740;7.606;2023-02-14T01:22:09;32.43;;;19.77;;
7501;SDS011;3792;47.740;7.606;2023-02-14T01:24:36;32.40;;;19.40;;
7501;SDS011;3792;47.740;7.606;2023-02-14T01:27:03;27.87;;;17.40;;
7501;SDS011;3792;47.740;7.606;2023-02-14T01:29:31;28.53;;;17.77;;
7501;SDS011;3792;47.740;7.606;2023-02-14T01:31:58;30.57;;;18.57;;
7501;SDS011;3792;47.740;7.606;2023-02-14T01:34:25;26.73;;;17.53;;
7501;SDS011;3792;47.740;7.606;2023-02-14T01:36:52;29.80;;;19.27;;
7501;SDS011;3792;47.740;7.606;2023-02-14T01:39:19;30.27;;;19.13;;
7501;SDS011;3792;47.740;7.606;2023-02-14T01:41:47;29.90;;;19.03;;
7501;SDS011;3792;47.740;7.606;2023-02-14T01:47:19;26.87;;;16.77;;
7501;SDS011;3792;47.740;7.606;2023-02-14T01:49:49;26.83;;;17.27;;
7501;SDS011;3792;47.740;7.606;2023-02-14T01:52:18;29.40;;;17.60;;
7501;SDS011;3792;47.740;7.606;2023-02-14T01:54:50;26.90;;;17.00;;
7501;SDS011;3792;47.740;7.606;2023-02-14T01:57:20;30.83;;;19.10;;
7501;SDS011;3792;47.740;7.606;2023-02-14T01:59:50;28.20;;;18.10;;
7501;SDS011;3792;47.740;7.606;2023-02-14T02:02:20;26.67;;;17.57;;
7501;SDS011;3792;47.740;7.606;2023-02-14T02:04:48;25.87;;;17.07;;
7501;SDS011;3792;47.740;7.606;2023-02-14T02:07:19;27.63;;;16.90;;
7501;SDS011;3792;47.740;7.606;2023-02-14T02:09:51;27.03;;;17.13;;
7501;SDS011;3792;47.740;7.606;2023-02-14T02:12:20;28.47;;;17.37;;
7501;SDS011;3792;47.740;7.606;2023-02-14T02:14:48;27.90;;;16.37;;
7501;SDS011;3792;47.740;7.606;2023-02-14T02:17:21;28.63;;;16.97;;
7501;SDS011;3792;47.740;7.606;2023-02-14T02:26:12;24.10;;;15.47;;
7501;SDS011;3792;47.740;7.606;2023-02-14T02:29:13;24.00;;;15.23;;
7501;SDS011;3792;47.740;7.606;2023-02-14T02:32:07;21.93;;;14.80;;
7501;SDS011;3792;47.740;7.606;2023-02-14T02:35:08;22.77;;;14.17;;
7501;SDS011;3792;47.740;7.606;2023-02-14T02:37:49;24.77;;;14.70;;
7501;SDS011;3792;47.740;7.606;2023-02-14T02:40:28;26.47;;;15.63;;
7501;SDS011;3792;47.740;7.606;2023-02-14T02:43:10;29.13;;;17.33;;
7501;SDS011;3792;47.740;7.606;2023-02-14T02:45:47;25.10;;;16.23;;
7501;SDS011;3792;47.740;7.606;2023-02-14T02:48:38;27.17;;;16.30;;
7501;SDS011;3792;47.740;7.606;2023-02-14T02:51:10;26.23;;;16.10;;
7501;SDS011;3792;47.740;7.606;2023-02-14T02:54:02;26.20;;;15.23;;
7501;SDS011;3792;47.740;7.606;2023-02-14T02:56:34;25.70;;;15.67;;
7501;SDS011;3792;47.740;7.606;2023-02-14T02:59:12;25.63;;;17.70;;
7501;SDS011;3792;47.740;7.606;2023-02-14T03:01:45;33.60;;;19.47;;
7501;SDS011;3792;47.740;7.606;2023-02-14T03:04:15;28.33;;;16.83;;
7501;SDS011;3792;47.740;7.606;2023-02-14T03:07:04;28.47;;;17.50;;
7501;SDS011;3792;47.740;7.606;2023-02-14T03:09:49;29.27;;;17.73;;
7501;SDS011;3792;47.740;7.606;2023-02-14T03:12:24;29.93;;;18.13;;
7501;SDS011;3792;47.740;7.606;2023-02-14T03:15:10;32.77;;;18.73;;
7501;SDS011;3792;47.740;7.606;2023-02-14T03:17:45;31.37;;;17.93;;
7501;SDS011;3792;47.740;7.606;2023-02-14T03:20:27;30.53;;;17.67;;
7501;SDS011;3792;47.740;7.606;2023-02-14T03:23:07;28.20;;;17.90;;
7501;SDS011;3792;47.740;7.606;2023-02-14T03:25:41;28.60;;;18.03;;
7501;SDS011;3792;47.740;7.606;2023-02-14T03:28:15;29.30;;;17.47;;
7501;SDS011;3792;47.740;7.606;2023-02-14T03:30:46;27.07;;;18.10;;
7501;SDS011;3792;47.740;7.606;2023-02-14T03:33:22;28.63;;;18.23;;
7501;SDS011;3792;47.740;7.606;2023-02-14T03:35:56;28.50;;;17.83;;
7501;SDS011;3792;47.740;7.606;2023-02-14T03:38:31;29.43;;;18.73;;
7501;SDS011;3792;47.740;7.606;2023-02-14T03:41:06;28.00;;;16.50;;
7501;SDS011;3792;47.740;7.606;2023-02-14T03:43:38;24.93;;;16.70;;
7501;SDS011;3792;47.740;7.606;2023-02-14T03:46:10;28.13;;;17.97;;
7501;SDS011;3792;47.740;7.606;2023-02-14T03:48:40;28.60;;;17.77;;
7501;SDS011;3792;47.740;7.606;2023-02-14T03:51:10;25.90;;;17.17;;
7501;SDS011;3792;47.740;7.606;2023-02-14T03:53:41;25.23;;;17.30;;
7501;SDS011;3792;47.740;7.606;2023-02-14T03:56:13;29.80;;;18.17;;
7501;SDS011;3792;47.740;7.606;2023-02-14T03:58:44;26.87;;;17.70;;
7501;SDS011;3792;47.740;7.606;2023-02-14T04:01:15;30.40;;;18.57;;
7501;SDS011;3792;47.740;7.606;2023-02-14T04:03:46;27.63;;;17.67;;
7501;SDS011;3792;47.740;7.606;2023-02-14T04:06:15;28.33;;;18.20;;
7501;SDS011;3792;47.740;7.606;2023-02-14T04:08:44;28.33;;;18.23;;
7501;SDS011;3792;47.740;7.606;2023-02-14T04:11:11;31.93;;;17.00;;
7501;SDS011;3792;47.740;7.606;2023-02-14T04:13:38;31.77;;;18.77;;
7501;SDS011;3792;47.740;7.606;2023-02-14T04:16:05;29.60;;;17.40;;
7501;SDS011;3792;47.740;7.606;2023-02-14T04:18:33;28.17;;;16.47;;
7501;SDS011;3792;47.740;7.606;2023-02-14T04:21:23;26.70;;;16.03;;
7501;SDS011;3792;47.740;7.606;2023-02-14T04:23:51;32.20;;;18.93;;
7501;SDS011;3792;47.740;7.606;2023-02-14T04:26:18;27.43;;;16.57;;
7501;SDS011;3792;47.740;7.606;2023-02-14T04:28:45;27.37;;;15.57;;
7501;SDS011;3792;47.740;7.606;2023-02-14T04:31:12;29.30;;;16.97;;
7501;SDS011;3792;47.740;7.606;2023-02-14T04:33:39;23.63;;;16.03;;
7501;SDS011;3792;47.740;7.606;2023-02-14T04:36:06;26.90;;;16.37;;
7501;SDS011;3792;47.740;7.606;2023-02-14T04:38:34;23.50;;;15.83;;
7501;SDS011;3792;47.740;7.606;2023-02-14T04:41:02;33.70;;;18.20;;
7501;SDS011;3792;47.740;7.606;2023-02-14T04:43:29;27.73;;;16.53;;
7501;SDS011;3792;47.740;7.606;2023-02-14T04:45:56;29.73;;;17.83;;
7501;SDS011;3792;47.740;7.606;2023-02-14T04:48:23;24.47;;;16.03;;
7501;SDS011;3792;47.740;7.606;2023-02-14T04:50:51;27.47;;;15.70;;
7501;SDS011;3792;47.740;7.606;2023-02-14T04:53:18;27.80;;;17.10;;
7501;SDS011;3792;47.740;7.606;2023-02-14T04:55:47;30.37;;;17.33;;
7501;SDS011;3792;47.740;7.606;2023-02-14T04:58:16;27.27;;;16.97;;
7501;SDS011;3792;47.740;7.606;2023-02-14T05:00:43;26.03;;;16.50;;
7501;SDS011;3792;47.740;7.606;2023-02-14T05:03:10;27.63;;;16.43;;
7501;SDS011;3792;47.740;7.606;2023-02-14T05:05:37;28.37;;;17.83;;
7501;SDS011;3792;47.740;7.606;2023-02-14T05:08:04;29.83;;;17.17;;
7501;SDS011;3792;47.740;7.606;2023-02-14T05:10:31;28.30;;;16.70;;
7501;SDS011;3792;47.740;7.606;2023-02-14T05:12:59;31.13;;;19.17;;
7501;SDS011;3792;47.740;7.606;2023-02-14T05:15:28;30.43;;;18.37;;
7501;SDS011;3792;47.740;7.606;2023-02-14T05:17:55;32.37;;;18.60;;
7501;SDS011;3792;47.740;7.606;2023-02-14T05:20:25;36.03;;;19.23;;
7501;SDS011;3792;47.740;7.606;2023-02-14T05:22:53;32.17;;;18.23;;
7501;SDS011;3792;47.740;7.606;2023-02-14T05:25:20;34.30;;;18.87;;
7501;SDS011;3792;47.740;7.606;2023-02-14T05:27:48;31.30;;;17.73;;
7501;SDS011;3792;47.740;7.606;2023-02-14T05:30:15;29.63;;;18.07;;
7501;SDS011;3792;47.740;7.606;2023-02-14T05:32:44;28.13;;;16.20;;
7501;SDS011;3792;47.740;7.606;2023-02-14T05:35:11;30.20;;;17.30;;
7501;SDS011;3792;47.740;7.606;2023-02-14T05:37:38;31.03;;;18.03;;
7501;SDS011;3792;47.740;7.606;2023-02-14T05:40:06;29.80;;;17.37;;
7501;SDS011;3792;47.740;7.606;2023-02-14T05:42:33;25.60;;;16.73;;
7501;SDS011;3792;47.740;7.606;2023-02-14T05:45:00;27.30;;;15.97;;
7501;SDS011;3792;47.740;7.606;2023-02-14T05:47:27;24.40;;;14.53;;
7501;SDS011;3792;47.740;7.606;2023-02-14T05:49:56;24.37;;;15.10;;
7501;SDS011;3792;47.740;7.606;2023-02-14T05:52:23;26.30;;;16.40;;
7501;SDS011;3792;47.740;7.606;2023-02-14T05:54:50;26.03;;;15.03;;
7501;SDS011;3792;47.740;7.606;2023-02-14T05:57:17;23.63;;;14.50;;
7501;SDS011;3792;47.740;7.606;2023-02-14T05:59:45;25.17;;;14.80;;
7501;SDS011;3792;47.740;7.606;2023-02-14T06:02:12;26.00;;;15.67;;
7501;SDS011;3792;47.740;7.606;2023-02-14T06:04:40;30.93;;;17.87;;
7501;SDS011;3792;47.740;7.606;2023-02-14T06:07:08;30.63;;;17.77;;
7501;SDS011;3792;47.740;7.606;2023-02-14T06:09:35;27.63;;;15.97;;
7501;SDS011;3792;47.740;7.606;2023-02-14T06:12:02;30.20;;;17.00;;
7501;SDS011;3792;47.740;7.606;2023-02-14T06:14:29;28.10;;;16.10;;
7501;SDS011;3792;47.740;7.606;2023-02-14T06:16:56;27.70;;;15.97;;
7501;SDS011;3792;47.740;7.606;2023-02-14T06:19:23;29.63;;;16.67;;
7501;SDS011;3792;47.740;7.606;2023-02-14T06:21:51;28.73;;;16.73;;
7501;SDS011;3792;47.740;7.606;2023-02-14T06:24:19;28.97;;;17.50;;
7501;SDS011;3792;47.740;7.606;2023-02-14T06:26:46;28.60;;;17.17;;
7501;SDS011;3792;47.740;7.606;2023-02-14T06:29:14;28.63;;;16.43;;
7501;SDS011;3792;47.740;7.606;2023-02-14T06:31:42;27.93;;;16.83;;
7501;SDS011;3792;47.740;7.606;2023-02-14T06:34:09;28.93;;;17.27;;
7501;SDS011;3792;47.740;7.606;2023-02-14T06:36:36;30.73;;;18.33;;
7501;SDS011;3792;47.740;7.606;2023-02-14T06:39:03;29.47;;;18.60;;
7501;SDS011;3792;47.740;7.606;2023-02-14T06:41:33;32.60;;;17.83;;
7501;SDS011;3792;47.740;7.606;2023-02-14T06:44:00;26.60;;;17.07;;
7501;SDS011;3792;47.740;7.606;2023-02-14T06:46:27;26.30;;;15.60;;
7501;SDS011;3792;47.740;7.606;2023-02-14T06:48:54;28.47;;;17.03;;
7501;SDS011;3792;47.740;7.606;2023-02-14T06:51:21;28.73;;;17.63;;
7501;SDS011;3792;47.740;7.606;2023-02-14T06:53:48;32.47;;;18.70;;
7501;SDS011;3792;47.740;7.606;2023-02-14T06:56:15;32.40;;;18.07;;
7501;SDS011;3792;47.740;7.606;2023-02-14T06:58:46;30.37;;;17.90;;
7501;SDS011;3792;47.740;7.606;2023-02-14T07:01:13;26.13;;;15.60;;
7501;SDS011;3792;47.740;7.606;2023-02-14T07:03:40;28.90;;;17.33;;
7501;SDS011;3792;47.740;7.606;2023-02-14T07:06:08;28.90;;;16.17;;
7501;SDS011;3792;47.740;7.606;2023-02-14T07:08:35;26.17;;;16.23;;
7501;SDS011;3792;47.740;7.606;2023-02-14T07:11:02;22.83;;;13.83;;
7501;SDS011;3792;47.740;7.606;2023-02-14T07:13:30;24.83;;;15.33;;
7501;SDS011;3792;47.740;7.606;2023-02-14T07:15:59;24.10;;;14.20;;
7501;SDS011;3792;47.740;7.606;2023-02-14T07:18:26;65.90;;;32.13;;
7501;SDS011;3792;47.740;7.606;2023-02-14T07:20:53;45.30;;;24.53;;
7501;SDS011;3792;47.740;7.606;2023-02-14T07:23:21;40.13;;;23.27;;
7501;SDS011;3792;47.740;7.606;2023-02-14T07:25:49;40.60;;;22.30;;
7501;SDS011;3792;47.740;7.606;2023-02-14T07:28:16;29.83;;;18.03;;
7501;SDS011;3792;47.740;7.606;2023-02-14T07:30:44;29.70;;;17.80;;
7501;SDS011;3792;47.740;7.606;2023-02-14T07:33:13;27.90;;;16.93;;
7501;SDS011;3792;47.740;7.606;2023-02-14T07:35:40;32.03;;;18.13;;
7501;SDS011;3792;47.740;7.606;2023-02-14T07:38:08;31.83;;;19.27;;
7501;SDS011;3792;47.740;7.606;2023-02-14T07:40:35;30.70;;;19.20;;
7501;SDS011;3792;47.740;7.606;2023-02-14T07:43:03;27.77;;;17.30;;
7501;SDS011;3792;47.740;7.606;2023-02-14T07:45:32;27.10;;;16.20;;
7501;SDS011;3792;47.740;7.606;2023-02-14T07:47:59;26.83;;;16.30;;
7501;SDS011;3792;47.740;7.606;2023-02-14T07:50:28;32.40;;;19.70;;
7501;SDS011;3792;47.740;7.606;2023-02-14T07:52:55;35.40;;;21.40;;
7501;SDS011;3792;47.740;7.606;2023-02-14T07:55:23;32.83;;;20.30;;
7501;SDS011;3792;47.740;7.606;2023-02-14T07:57:50;29.37;;;19.33;;
7501;SDS011;3792;47.740;7.606;2023-02-14T08:00:17;36.70;;;23.43;;
7501;SDS011;3792;47.740;7.606;2023-02-14T08:02:45;34.50;;;21.37;;
7501;SDS011;3792;47.740;7.606;2023-02-14T08:05:13;38.07;;;21.87;;
7501;SDS011;3792;47.740;7.606;2023-02-14T08:07:42;33.03;;;20.27;;
7501;SDS011;3792;47.740;7.606;2023-02-14T08:10:09;35.90;;;22.03;;
7501;SDS011;3792;47.740;7.606;2023-02-14T08:12:36;42.73;;;27.47;;
7501;SDS011;3792;47.740;7.606;2023-02-14T08:15:21;40.20;;;25.97;;
7501;SDS011;3792;47.740;7.606;2023-02-14T08:18:05;33.97;;;21.50;;
7501;SDS011;3792;47.740;7.606;2023-02-14T08:20:32;32.90;;;21.10;;
7501;SDS011;3792;47.740;7.606;2023-02-14T08:23:01;34.43;;;22.60;;
7501;SDS011;3792;47.740;7.606;2023-02-14T08:25:28;39.90;;;23.47;;
7501;SDS011;3792;47.740;7.606;2023-02-14T08:27:55;29.97;;;19.17;;
7501;SDS011;3792;47.740;7.606;2023-02-14T08:30:22;30.50;;;19.77;;
7501;SDS011;3792;47.740;7.606;2023-02-14T08:32:50;29.77;;;18.47;;
7501;SDS011;3792;47.740;7.606;2023-02-14T08:35:18;29.97;;;18.63;;
7501;SDS011;3792;47.740;7.606;2023-02-14T08:37:45;31.03;;;20.93;;
7501;SDS011;3792;47.740;7.606;2023-02-14T08:40:13;45.10;;;28.67;;
7501;SDS011;3792;47.740;7.606;2023-02-14T08:42:40;46.27;;;28.67;;
7501;SDS011;3792;47.740;7.606;2023-02-14T08:45:08;35.03;;;23.57;;
7501;SDS011;3792;47.740;7.606;2023-02-14T08:47:35;30.77;;;20.67;;
7501;SDS011;3792;47.740;7.606;2023-02-14T08:50:04;30.03;;;19.60;;
7501;SDS011;3792;47.740;7.606;2023-02-14T08:52:32;28.97;;;21.00;;
7501;SDS011;3792;47.740;7.606;2023-02-14T08:54:59;30.70;;;19.50;;
7501;SDS011;3792;47.740;7.606;2023-02-14T08:57:28;29.23;;;20.47;;
7501;SDS011;3792;47.740;7.606;2023-02-14T08:59:55;29.20;;;18.73;;
7501;SDS011;3792;47.740;7.606;2023-02-14T09:02:22;29.37;;;18.63;;
7501;SDS011;3792;47.740;7.606;2023-02-14T09:04:49;26.23;;;18.40;;
7501;SDS011;3792;47.740;7.606;2023-02-14T09:07:16;30.43;;;20.27;;
7501;SDS011;3792;47.740;7.606;2023-02-14T09:09:43;27.17;;;19.47;;
7501;SDS011;3792;47.740;7.606;2023-02-14T09:12:11;28.77;;;19.67;;
7501;SDS011;3792;47.740;7.606;2023-02-14T09:14:40;42.57;;;26.37;;
7501;SDS011;3792;47.740;7.606;2023-02-14T09:17:09;32.57;;;22.27;;
7501;SDS011;3792;47.740;7.606;2023-02-14T09:19:36;32.20;;;21.27;;
7501;SDS011;3792;47.740;7.606;2023-02-14T09:22:04;34.57;;;21.70;;
7501;SDS011;3792;47.740;7.606;2023-02-14T09:24:33;48.63;;;29.80;;
7501;SDS011;3792;47.740;7.606;2023-02-14T09:27:01;50.53;;;32.30;;
7501;SDS011;3792;47.740;7.606;2023-02-14T09:29:29;58.57;;;34.63;;
7501;SDS011;3792;47.740;7.606;2023-02-14T09:31:58;50.10;;;27.97;;
7501;SDS011;3792;47.740;7.606;2023-02-14T09:34:26;40.20;;;25.50;;
7501;SDS011;3792;47.740;7.606;2023-02-14T09:36:54;50.47;;;27.80;;
7501;SDS011;3792;47.740;7.606;2023-02-14T09:39:21;52.10;;;28.57;;
7501;SDS011;3792;47.740;7.606;2023-02-14T09:44:48;40.47;;;23.97;;
7501;SDS011;3792;47.740;7.606;2023-02-14T09:47:21;41.27;;;25.90;;
7501;SDS011;3792;47.740;7.606;2023-02-14T09:49:55;46.70;;;25.53;;
7501;SDS011;3792;47.740;7.606;2023-02-14T09:52:25;44.30;;;25.87;;
7501;SDS011;3792;47.740;7.606;2023-02-14T09:54:56;48.37;;;25.90;;
7501;SDS011;3792;47.740;7.606;2023-02-14T09:57:27;42.60;;;24.30;;
7501;SDS011;3792;47.740;7.606;2023-02-14T10:00:02;42.63;;;25.17;;
7501;SDS011;3792;47.740;7.606;2023-02-14T10:02:43;38.23;;;23.37;;
7501;SDS011;3792;47.740;7.606;2023-02-14T10:05:20;36.20;;;22.40;;
7501;SDS011;3792;47.740;7.606;2023-02-14T10:10:44;37.40;;;21.77;;
7501;SDS011;3792;47.740;7.606;2023-02-14T10:13:15;36.97;;;23.17;;
7501;SDS011;3792;47.740;7.606;2023-02-14T10:15:46;38.03;;;22.60;;
7501;SDS011;3792;47.740;7.606;2023-02-14T10:18:18;37.97;;;23.53;;
7501;SDS011;3792;47.740;7.606;2023-02-14T10:20:48;39.50;;;24.20;;
7501;SDS011;3792;47.740;7.606;2023-02-14T10:23:28;36.83;;;22.83;;
7501;SDS011;3792;47.740;7.606;2023-02-14T10:25:59;34.10;;;21.77;;
7501;SDS011;3792;47.740;7.606;2023-02-14T10:28:31;35.60;;;22.67;;
7501;SDS011;3792;47.740;7.606;2023-02-14T10:31:04;32.80;;;22.07;;
7501;SDS011;3792;47.740;7.606;2023-02-14T10:33:47;30.77;;;19.50;;
7501;SDS011;3792;47.740;7.606;2023-02-14T10:36:19;33.13;;;21.93;;
7501;SDS011;3792;47.740;7.606;2023-02-14T10:39:07;33.77;;;22.00;;
7501;SDS011;3792;47.740;7.606;2023-02-14T10:41:49;29.13;;;20.17;;
7501;SDS011;3792;47.740;7.606;2023-02-14T10:44:26;35.87;;;21.50;;
7501;SDS011;3792;47.740;7.606;2023-02-14T10:47:01;40.83;;;26.53;;
7501;SDS011;3792;47.740;7.606;2023-02-14T10:49:39;34.70;;;23.57;;
7501;SDS011;3792;47.740;7.606;2023-02-14T10:52:14;35.23;;;22.57;;
7501;SDS011;3792;47.740;7.606;2023-02-14T10:54:50;31.93;;;21.73;;
7501;SDS011;3792;47.740;7.606;2023-02-14T10:57:19;32.03;;;21.33;;
7501;SDS011;3792;47.740;7.606;2023-02-14T10:59:55;33.83;;;22.97;;
7501;SDS011;3792;47.740;7.606;2023-02-14T11:02:26;31.00;;;21.27;;
7501;SDS011;3792;47.740;7.606;2023-02-14T11:05:00;30.90;;;22.07;;
7501;SDS011;3792;47.740;7.606;2023-02-14T11:07:29;34.17;;;21.80;;
7501;SDS011;3792;47.740;7.606;2023-02-14T11:09:56;30.53;;;21.00;;
7501;SDS011;3792;47.740;7.606;2023-02-14T11:12:33;32.70;;;22.90;;
7501;SDS011;3792;47.740;7.606;2023-02-14T11:15:10;32.10;;;22.37;;
7501;SDS011;3792;47.740;7.606;2023-02-14T11:17:45;36.83;;;24.37;;
7501;SDS011;3792;47.740;7.606;2023-02-14T11:20:21;29.20;;;21.60;;
7501;SDS011;3792;47.740;7.606;2023-02-14T11:22:52;28.30;;;21.20;;
7501;SDS011;3792;47.740;7.606;2023-02-14T11:25:20;26.30;;;20.57;;
7501;SDS011;3792;47.740;7.606;2023-02-14T11:27:49;28.80;;;21.77;;
7501;SDS011;3792;47.740;7.606;2023-02-14T11:30:24;29.57;;;21.33;;
7501;SDS011;3792;47.740;7.606;2023-02-14T11:32:53;30.27;;;21.60;;
7501;SDS011;3792;47.740;7.606;2023-02-14T11:35:22;26.80;;;20.57;;
7501;SDS011;3792;47.740;7.606;2023-02-14T11:37:58;27.57;;;20.97;;
7501;SDS011;3792;47.740;7.606;2023-02-14T11:40:27;24.83;;;19.20;;
7501;SDS011;3792;47.740;7.606;2023-02-14T11:42:57;26.67;;;21.00;;
7501;SDS011;3792;47.740;7.606;2023-02-14T11:45:29;24.43;;;19.03;;
7501;SDS011;3792;47.740;7.606;2023-02-14T11:50:52;30.93;;;20.50;;
7501;SDS011;3792;47.740;7.606;2023-02-14T11:53:22;25.53;;;19.83;;
7501;SDS011;3792;47.740;7.606;2023-02-14T11:55:50;29.17;;;20.53;;
7501;SDS011;3792;47.740;7.606;2023-02-14T11:58:26;25.17;;;19.33;;
7501;SDS011;3792;47.740;7.606;2023-02-14T12:00:58;24.23;;;18.57;;
7501;SDS011;3792;47.740;7.606;2023-02-14T12:03:27;28.07;;;20.00;;
7501;SDS011;3792;47.740;7.606;2023-02-14T12:06:00;23.63;;;18.43;;
7501;SDS011;3792;47.740;7.606;2023-02-14T12:08:27;26.13;;;19.33;;
7501;SDS011;3792;47.740;7.606;2023-02-14T12:11:02;27.43;;;19.50;;
7501;SDS011;3792;47.740;7.606;2023-02-14T12:13:31;23.73;;;18.50;;
7501;SDS011;3792;47.740;7.606;2023-02-14T12:15:58;27.30;;;21.30;;
7501;SDS011;3792;47.740;7.606;2023-02-14T12:21:22;24.63;;;19.37;;
7501;SDS011;3792;47.740;7.606;2023-02-14T12:24:06;21.57;;;18.33;;
7501;SDS011;3792;47.740;7.606;2023-02-14T12:26:42;24.27;;;20.03;;
7501;SDS011;3792;47.740;7.606;2023-02-14T12:29:15;22.97;;;18.20;;
7501;SDS011;3792;47.740;7.606;2023-02-14T12:31:46;24.47;;;19.10;;
7501;SDS011;3792;47.740;7.606;2023-02-14T12:34:15;22.93;;;18.70;;
7501;SDS011;3792;47.740;7.606;2023-02-14T12:36:50;23.70;;;18.37;;
7501;SDS011;3792;47.740;7.606;2023-02-14T12:39:34;22.77;;;18.80;;
7501;SDS011;3792;47.740;7.606;2023-02-14T12:42:10;21.90;;;17.47;;
7501;SDS011;3792;47.740;7.606;2023-02-14T12:44:49;20.07;;;16.63;;
7501;SDS011;3792;47.740;7.606;2023-02-14T12:47:26;25.70;;;17.70;;
7501;SDS011;3792;47.740;7.606;2023-02-14T12:50:19;22.90;;;18.33;;
7501;SDS011;3792;47.740;7.606;2023-02-14T12:53:03;26.67;;;18.00;;
7501;SDS011;3792;47.740;7.606;2023-02-14T12:55:53;22.90;;;18.43;;
7501;SDS011;3792;47.740;7.606;2023-02-14T12:58:34;22.17;;;17.83;;
7501;SDS011;3792;47.740;7.606;2023-02-14T13:01:12;23.43;;;18.87;;
7501;SDS011;3792;47.740;7.606;2023-02-14T13:04:01;24.60;;;18.83;;
7501;SDS011;3792;47.740;7.606;2023-02-14T13:06:39;23.00;;;18.93;;
7501;SDS011;3792;47.740;7.606;2023-02-14T13:09:16;20.10;;;15.43;;
7501;SDS011;3792;47.740;7.606;2023-02-14T13:11:54;18.47;;;15.40;;
7501;SDS011;3792;47.740;7.606;2023-02-14T13:14:33;22.10;;;17.37;;
7501;SDS011;3792;47.740;7.606;2023-02-14T13:17:11;20.07;;;17.27;;
7501;SDS011;3792;47.740;7.606;2023-02-14T13:19:48;21.17;;;18.20;;
7501;SDS011;3792;47.740;7.606;2023-02-14T13:22:20;18.27;;;14.97;;
7501;SDS011;3792;47.740;7.606;2023-02-14T13:24:52;21.43;;;17.57;;
7501;SDS011;3792;47.740;7.606;2023-02-14T13:27:25;20.20;;;17.97;;
7501;SDS011;3792;47.740;7.606;2023-02-14T13:29:57;24.37;;;19.40;;
7501;SDS011;3792;47.740;7.606;2023-02-14T13:32:27;22.23;;;19.33;;
7501;SDS011;3792;47.740;7.606;2023-02-14T13:34:58;23.50;;;19.13;;
7501;SDS011;3792;47.740;7.606;2023-02-14T13:37:26;21.13;;;18.93;;
7501;SDS011;3792;47.740;7.606;2023-02-14T13:39:57;22.37;;;19.63;;
7501;SDS011;3792;47.740;7.606;2023-02-14T13:48:20;22.80;;;19.23;;
7501;SDS011;3792;47.740;7.606;2023-02-14T13:50:50;24.03;;;19.70;;
7501;SDS011;3792;47.740;7.606;2023-02-14T13:53:31;24.20;;;20.77;;
7501;SDS011;3792;47.740;7.606;2023-02-14T13:56:03;25.30;;;20.40;;
7501;SDS011;3792;47.740;7.606;2023-02-14T13:58:52;26.40;;;21.63;;
7501;SDS011;3792;47.740;7.606;2023-02-14T14:01:27;23.60;;;19.30;;
7501;SDS011;3792;47.740;7.606;2023-02-14T14:04:00;22.67;;;20.27;;
7501;SDS011;3792;47.740;7.606;2023-02-14T14:06:40;22.87;;;20.17;;
7501;SDS011;3792;47.740;7.606;2023-02-14T14:09:53;22.77;;;19.77;;
7501;SDS011;3792;47.740;7.606;2023-02-14T14:12:40;25.20;;;21.53;;
7501;SDS011;3792;47.740;7.606;2023-02-14T14:15:14;24.47;;;21.17;;
7501;SDS011;3792;47.740;7.606;2023-02-14T14:17:46;27.10;;;21.10;;
7501;SDS011;3792;47.740;7.606;2023-02-14T14:20:29;23.37;;;19.63;;
7501;SDS011;3792;47.740;7.606;2023-02-14T14:23:26;25.63;;;19.53;;
7501;SDS011;3792;47.740;7.606;2023-02-14T14:25:56;27.73;;;21.33;;
7501;SDS011;3792;47.740;7.606;2023-02-14T14:28:26;23.80;;;20.23;;
7501;SDS011;3792;47.740;7.606;2023-02-14T14:30:56;23.53;;;20.47;;
7501;SDS011;3792;47.740;7.606;2023-02-14T14:33:25;27.03;;;22.53;;
7501;SDS011;3792;47.740;7.606;2023-02-14T14:35:53;26.97;;;21.23;;
7501;SDS011;3792;47.740;7.606;2023-02-14T14:38:23;29.43;;;23.07;;
7501;SDS011;3792;47.740;7.606;2023-02-14T14:40:50;25.73;;;20.97;;
7501;SDS011;3792;47.740;7.606;2023-02-14T14:43:22;26.37;;;22.40;;
7501;SDS011;3792;47.740;7.606;2023-02-14T14:45:55;31.43;;;24.83;;
7501;SDS011;3792;47.740;7.606;2023-02-14T14:48:26;28.03;;;23.10;;
7501;SDS011;3792;47.740;7.606;2023-02-14T14:50:56;26.20;;;21.47;;
7501;SDS011;3792;47.740;7.606;2023-02-14T14:53:24;27.50;;;23.60;;
7501;SDS011;3792;47.740;7.606;2023-02-14T14:55:54;29.43;;;23.40;;
7501;SDS011;3792;47.740;7.606;2023-02-14T14:58:31;31.37;;;23.13;;
7501;SDS011;3792;47.740;7.606;2023-02-14T15:01:00;26.87;;;23.37;;
7501;SDS011;3792;47.740;7.606;2023-02-14T15:03:29;28.97;;;23.27;;
7501;SDS011;3792;47.740;7.606;2023-02-14T15:06:07;30.97;;;25.20;;
7501;SDS011;3792;47.740;7.606;2023-02-14T15:08:40;35.03;;;25.43;;
7501;SDS011;3792;47.740;7.606;2023-02-14T15:11:08;36.37;;;27.83;;
7501;SDS011;3792;47.740;7.606;2023-02-14T15:13:59;40.30;;;29.57;;
7501;SDS011;3792;47.740;7.606;2023-02-14T15:16:27;36.37;;;28.93;;
7501;SDS011;3792;47.740;7.606;2023-02-14T15:18:58;49.33;;;36.17;;
7501;SDS011;3792;47.740;7.606;2023-02-14T15:21:31;46.60;;;34.10;;
7501;SDS011;3792;47.740;7.606;2023-02-14T15:23:59;39.53;;;30.77;;
7501;SDS011;3792;47.740;7.606;2023-02-14T15:26:28;38.23;;;28.17;;
7501;SDS011;3792;47.740;7.606;2023-02-14T15:28:57;39.37;;;29.27;;
7501;SDS011;3792;47.740;7.606;2023-02-14T15:31:28;38.83;;;29.10;;
7501;SDS011;3792;47.740;7.606;2023-02-14T15:33:57;40.07;;;29.90;;
7501;SDS011;3792;47.740;7.606;2023-02-14T15:36:27;37.00;;;28.37;;
7501;SDS011;3792;47.740;7.606;2023-02-14T15:38:54;39.43;;;29.37;;